createdAt,value
2022-10-14T00:02:24.441Z,42.65
2022-10-14T00:05:12.698Z,47.72
2022-10-14T00:07:59.979Z,49.10
2022-10-14T00:10:47.156Z,52.20
2022-10-14T00:13:19.535Z,45.95
2022-10-14T00:15:46.867Z,42.97
2022-10-14T00:18:14.108Z,48.22
2022-10-14T00:20:41.338Z,44.35
2022-10-14T00:23:08.511Z,47.95
2022-10-14T00:25:39.067Z,43.42
2022-10-14T00:28:06.436Z,48.47
2022-10-14T00:30:33.666Z,52.67
2022-10-14T00:33:03.663Z,44.78
2022-10-14T00:35:32.403Z,48.83
2022-10-14T00:38:00.137Z,47.30
2022-10-14T00:40:27.853Z,49.03
2022-10-14T00:42:55.129Z,42.15
2022-10-14T00:45:24.562Z,46.90
2022-10-14T00:47:54.732Z,41.88
2022-10-14T00:50:24.607Z,42.92
2022-10-14T00:52:56.167Z,43.85
2022-10-14T00:55:28.899Z,43.22
2022-10-14T00:57:56.799Z,46.97
2022-10-14T01:00:27.061Z,47.65
2022-10-14T01:03:00.307Z,40.92
2022-10-14T01:06:23.082Z,44.15
2022-10-14T01:09:33.771Z,45.85
2022-10-14T01:13:14.256Z,44.55
2022-10-14T01:16:51.166Z,46.20
2022-10-14T01:20:07.851Z,44.03
2022-10-14T01:23:25.732Z,50.80
2022-10-14T01:26:47.074Z,46.25
2022-10-14T01:32:36.074Z,45.23
2022-10-14T01:35:56.279Z,49.95
2022-10-14T01:38:41.290Z,55.50
2022-10-14T01:41:43.549Z,37.80
2022-10-14T01:44:18.697Z,36.47
2022-10-14T01:46:55.827Z,40.10
2022-10-14T01:50:02.896Z,38.22
2022-10-14T01:52:49.803Z,47.22
2022-10-14T01:55:30.452Z,39.35
2022-10-14T01:58:01.053Z,40.30
2022-10-14T02:00:32.702Z,39.85
2022-10-14T02:03:05.031Z,40.08
2022-10-14T02:05:49.055Z,40.40
2022-10-14T02:08:53.087Z,40.85
2022-10-14T02:11:24.463Z,39.05
2022-10-14T02:14:44.282Z,41.15
2022-10-14T02:17:55.481Z,40.10
2022-10-14T02:20:49.651Z,43.28
2022-10-14T02:23:32.905Z,34.90
2022-10-14T02:26:06.805Z,39.55
2022-10-14T02:28:39.819Z,47.10
2022-10-14T02:31:17.894Z,44.92
2022-10-14T02:33:57.851Z,38.63
2022-10-14T02:36:29.687Z,41.25
2022-10-14T02:39:01.956Z,44.60
2022-10-14T02:41:38.108Z,44.55
2022-10-14T02:44:14.406Z,40.72
2022-10-14T02:46:46.000Z,40.08
2022-10-14T02:49:17.760Z,39.30
2022-10-14T02:51:49.762Z,44.95
2022-10-14T02:54:23.908Z,43.58
2022-10-14T02:57:04.296Z,42.63
2022-10-14T02:59:43.114Z,48.95
2022-10-14T03:02:18.561Z,37.50
2022-10-14T03:04:52.312Z,37.65
2022-10-14T03:07:29.082Z,46.70
2022-10-14T03:10:06.614Z,38.80
2022-10-14T03:12:43.448Z,40.92
2022-10-14T03:15:29.887Z,40.05
2022-10-14T03:18:09.915Z,41.38
2022-10-14T03:20:52.461Z,44.28
2022-10-14T03:23:34.113Z,42.53
2022-10-14T03:26:11.833Z,42.63
2022-10-14T03:28:48.976Z,44.28
2022-10-14T03:31:33.699Z,41.58
2022-10-14T03:34:32.610Z,43.33
2022-10-14T03:37:25.897Z,44.38
2022-10-14T03:40:00.207Z,40.65
2022-10-14T03:42:35.442Z,42.95
2022-10-14T03:45:10.123Z,51.72
2022-10-14T03:47:48.845Z,43.45
2022-10-14T03:50:23.990Z,45.15
2022-10-14T03:53:01.332Z,55.28
2022-10-14T03:55:50.533Z,44.60
2022-10-14T03:58:26.786Z,51.83
2022-10-14T04:01:07.150Z,44.08
2022-10-14T04:03:59.847Z,40.17
2022-10-14T04:06:35.724Z,41.10
2022-10-14T04:09:13.201Z,43.55
2022-10-14T04:11:48.722Z,38.38
2022-10-14T04:14:57.215Z,38.75
2022-10-14T04:17:45.551Z,43.83
2022-10-14T04:20:35.142Z,40.90
2022-10-14T04:23:23.059Z,36.92
2022-10-14T04:26:14.835Z,41.65
2022-10-14T04:29:04.807Z,41.35
2022-10-14T04:32:02.042Z,41.10
2022-10-14T04:34:50.155Z,37.92
2022-10-14T04:37:40.931Z,39.22
2022-10-14T04:40:38.457Z,37.05
2022-10-14T04:43:27.073Z,37.90
2022-10-14T04:46:17.136Z,42.28
2022-10-14T04:49:04.965Z,39.08
2022-10-14T04:51:58.533Z,37.05
2022-10-14T04:54:58.951Z,35.78
2022-10-14T04:58:02.882Z,34.28
2022-10-14T05:00:57.171Z,37.10
2022-10-14T05:03:55.578Z,37.45
2022-10-14T05:06:43.152Z,35.90
2022-10-14T05:09:33.914Z,33.22
2022-10-14T05:12:22.705Z,35.25
2022-10-14T05:15:15.439Z,39.05
2022-10-14T05:18:14.034Z,43.28
2022-10-14T05:21:11.015Z,43.00
2022-10-14T05:24:12.254Z,37.97
2022-10-14T05:27:00.703Z,40.20
2022-10-14T05:29:50.595Z,34.97
2022-10-14T05:32:38.477Z,40.17
2022-10-14T05:35:46.694Z,37.22
2022-10-14T05:38:35.397Z,37.25
2022-10-14T05:41:23.497Z,35.47
2022-10-14T05:43:54.598Z,33.65
2022-10-14T05:46:36.904Z,36.28
2022-10-14T05:49:12.599Z,37.55
2022-10-14T05:51:50.133Z,35.70
2022-10-14T05:54:30.351Z,31.17
2022-10-14T05:57:06.672Z,35.00
2022-10-14T05:59:42.469Z,35.92
2022-10-14T06:02:24.595Z,29.80
2022-10-14T06:05:02.921Z,31.20
2022-10-14T06:07:48.733Z,28.67
2022-10-14T06:10:27.437Z,30.00
2022-10-14T06:13:03.513Z,33.55
2022-10-14T06:15:40.229Z,29.00
2022-10-14T06:18:27.471Z,30.45
2022-10-14T06:21:07.667Z,24.33
2022-10-14T06:23:48.190Z,26.95
2022-10-14T06:26:35.299Z,30.10
2022-10-14T06:29:26.274Z,30.70
2022-10-14T06:31:57.965Z,25.88
2022-10-14T06:34:39.414Z,24.95
2022-10-14T06:37:26.686Z,27.33
2022-10-14T06:40:01.389Z,27.15
2022-10-14T06:42:40.459Z,27.58
2022-10-14T06:45:20.129Z,25.88
2022-10-14T06:48:07.483Z,24.65
2022-10-14T06:53:31.671Z,21.30
2022-10-14T06:56:13.895Z,25.20
2022-10-14T06:58:57.423Z,22.58
2022-10-14T07:01:35.290Z,17.70
2022-10-14T07:04:15.998Z,20.40
2022-10-14T07:07:08.548Z,18.85
2022-10-14T07:09:54.214Z,21.17
2022-10-14T07:12:37.791Z,18.33
2022-10-14T07:15:16.997Z,18.23
2022-10-14T07:18:06.731Z,20.73
2022-10-14T07:20:50.213Z,19.27
2022-10-14T07:23:27.944Z,19.08
2022-10-14T07:26:11.675Z,17.90
2022-10-14T07:28:55.563Z,20.55
2022-10-14T07:31:38.159Z,19.88
2022-10-14T07:34:18.977Z,20.25
2022-10-14T07:37:06.234Z,18.05
2022-10-14T07:39:46.564Z,17.80
2022-10-14T07:42:34.833Z,19.33
2022-10-14T07:45:22.325Z,18.67
2022-10-14T07:48:09.580Z,18.73
2022-10-14T07:50:49.841Z,16.05
2022-10-14T07:53:45.323Z,20.08
2022-10-14T07:56:32.577Z,16.42
2022-10-14T07:59:21.338Z,16.25
2022-10-14T08:01:57.714Z,15.98
2022-10-14T08:04:46.223Z,15.85
2022-10-14T08:07:33.691Z,14.10
2022-10-14T08:10:20.991Z,15.00
2022-10-14T08:13:05.812Z,14.98
2022-10-14T08:15:50.727Z,13.73
2022-10-14T08:18:37.871Z,14.20
2022-10-14T08:21:26.311Z,14.77
2022-10-14T08:24:13.536Z,14.23
2022-10-14T08:27:01.120Z,17.17
2022-10-14T08:29:48.367Z,13.68
2022-10-14T08:32:33.255Z,14.43
2022-10-14T08:35:20.485Z,13.68
2022-10-14T08:38:07.950Z,14.13
2022-10-14T08:41:23.226Z,14.02
2022-10-14T08:44:22.948Z,13.25
2022-10-14T08:47:22.115Z,12.18
2022-10-14T08:50:40.647Z,12.18
2022-10-14T08:53:42.796Z,12.73
2022-10-14T08:56:30.226Z,11.15
2022-10-14T09:02:50.222Z,12.57
2022-10-14T09:05:39.886Z,11.20
2022-10-14T09:08:50.658Z,12.52
2022-10-14T09:11:45.278Z,11.73
2022-10-14T09:14:44.097Z,12.10
2022-10-14T09:18:01.911Z,12.77
2022-10-14T09:20:49.917Z,11.93
2022-10-14T09:23:37.532Z,11.23
2022-10-14T09:26:43.111Z,10.80
2022-10-14T09:30:10.219Z,12.77
2022-10-14T09:32:59.862Z,11.15
2022-10-14T09:35:51.084Z,12.10
2022-10-14T09:38:38.275Z,12.13
2022-10-14T09:41:32.085Z,11.85
2022-10-14T09:44:28.404Z,11.48
2022-10-14T09:47:19.039Z,12.13
2022-10-14T09:50:09.443Z,10.57
2022-10-14T09:53:14.559Z,11.07
2022-10-14T09:56:06.990Z,11.18
2022-10-14T09:58:57.301Z,11.07
2022-10-14T10:02:03.978Z,10.18
2022-10-14T10:07:39.578Z,9.98
2022-10-14T10:10:26.983Z,11.40
2022-10-14T10:16:31.530Z,9.00
2022-10-14T10:19:43.290Z,9.95
2022-10-14T10:22:34.127Z,10.52
2022-10-14T10:25:28.480Z,9.13
2022-10-14T10:28:31.824Z,9.73
2022-10-14T10:32:01.344Z,11.30
2022-10-14T10:35:33.598Z,11.02
2022-10-14T10:39:00.201Z,10.18
2022-10-14T10:42:23.706Z,12.25
2022-10-14T10:45:42.646Z,12.15
2022-10-14T10:49:08.685Z,12.25
2022-10-14T10:53:01.196Z,10.20
2022-10-14T10:56:25.511Z,10.48
2022-10-14T10:59:39.728Z,11.63
2022-10-14T11:03:07.998Z,9.50
2022-10-14T11:06:45.264Z,11.52
2022-10-14T11:10:13.017Z,11.75
2022-10-14T11:13:36.642Z,11.85
2022-10-14T11:16:39.693Z,11.18
2022-10-14T11:19:50.357Z,12.45
2022-10-14T11:23:48.081Z,13.38
2022-10-14T11:27:08.743Z,10.52
2022-10-14T11:30:44.208Z,11.77
2022-10-14T11:33:45.092Z,11.30
2022-10-14T11:37:20.936Z,9.93
2022-10-14T11:40:36.088Z,11.88
2022-10-14T11:44:12.407Z,11.18
2022-10-14T11:47:10.051Z,10.65
2022-10-14T11:50:26.455Z,9.02
2022-10-14T12:00:04.364Z,8.88
2022-10-14T12:03:36.470Z,6.90
2022-10-14T12:06:43.934Z,8.25
2022-10-14T12:10:01.719Z,8.05
2022-10-14T12:12:51.443Z,8.07
2022-10-14T12:15:48.919Z,8.60
2022-10-14T12:18:37.787Z,8.38
2022-10-14T12:21:58.665Z,7.90
2022-10-14T12:25:07.798Z,10.27
2022-10-14T12:27:56.578Z,11.00
2022-10-14T12:30:43.800Z,10.73
2022-10-14T12:33:31.021Z,12.65
2022-10-14T12:36:40.670Z,12.48
2022-10-14T12:39:42.576Z,12.90
2022-10-14T12:42:44.851Z,11.25
2022-10-14T12:45:36.087Z,13.68
2022-10-14T12:48:28.872Z,14.88
2022-10-14T12:51:23.065Z,17.08
2022-10-14T12:54:18.329Z,16.55
2022-10-14T12:57:30.944Z,16.77
2022-10-14T13:00:24.133Z,16.80
2022-10-14T13:03:27.404Z,17.05
2022-10-14T13:06:42.333Z,19.13
2022-10-14T13:09:35.862Z,18.13
2022-10-14T13:12:22.949Z,18.65
2022-10-14T13:15:52.257Z,16.48
2022-10-14T13:18:44.909Z,17.95
2022-10-14T13:21:34.918Z,14.50
2022-10-14T13:24:32.486Z,14.85
2022-10-14T13:27:47.878Z,13.48
2022-10-14T13:31:08.173Z,12.32
2022-10-14T13:34:13.627Z,13.82
2022-10-14T13:37:24.655Z,13.18
2022-10-14T13:39:57.470Z,12.07
2022-10-14T13:42:37.482Z,12.68
2022-10-14T13:45:14.434Z,14.13
2022-10-14T13:47:49.904Z,13.32
2022-10-14T13:50:33.131Z,13.00
2022-10-14T13:53:17.756Z,13.23
2022-10-14T13:55:54.983Z,12.93
2022-10-14T13:58:25.396Z,13.77
2022-10-14T14:00:57.382Z,12.77
2022-10-14T14:03:42.961Z,11.93
2022-10-14T14:06:22.910Z,10.77
2022-10-14T14:09:05.857Z,12.60
2022-10-14T14:11:38.335Z,11.65
2022-10-14T14:14:46.025Z,12.50
2022-10-14T14:17:34.820Z,12.57
2022-10-14T14:20:12.305Z,12.57
2022-10-14T14:22:48.582Z,12.70
2022-10-14T14:25:34.689Z,13.85
2022-10-14T14:28:15.601Z,13.20
2022-10-14T14:30:55.431Z,14.23
2022-10-14T14:33:35.234Z,13.35
2022-10-14T14:36:27.330Z,14.02
2022-10-14T14:39:02.610Z,14.73
2022-10-14T14:41:33.717Z,14.43
2022-10-14T14:44:25.584Z,16.67
2022-10-14T14:47:05.252Z,17.55
2022-10-14T14:49:41.263Z,17.95
2022-10-14T14:52:15.605Z,18.15
2022-10-14T14:54:48.824Z,17.40
2022-10-14T14:57:30.299Z,18.25
2022-10-14T15:00:19.807Z,17.75
2022-10-14T15:03:09.392Z,18.70
2022-10-14T15:06:02.563Z,18.95
2022-10-14T15:08:54.973Z,17.70
2022-10-14T15:11:34.854Z,20.30
2022-10-14T15:14:59.728Z,18.48
2022-10-14T15:17:50.248Z,20.33
2022-10-14T15:20:38.373Z,19.30
2022-10-14T15:23:48.490Z,22.50
2022-10-14T15:26:35.205Z,22.98
2022-10-14T15:32:15.310Z,21.67
2022-10-14T15:35:00.298Z,20.90
2022-10-14T15:37:51.537Z,23.20
2022-10-14T15:40:32.625Z,22.17
2022-10-14T15:43:27.374Z,20.98
2022-10-14T15:46:32.484Z,22.38
2022-10-14T15:49:23.588Z,21.75
2022-10-14T15:52:02.057Z,22.00
2022-10-14T15:54:39.449Z,21.33
2022-10-14T15:57:27.622Z,22.02
2022-10-14T16:00:07.549Z,22.00
2022-10-14T16:02:57.096Z,22.02
2022-10-14T16:05:40.675Z,22.40
2022-10-14T16:08:29.154Z,24.88
2022-10-14T16:11:27.288Z,21.10
2022-10-14T16:14:02.839Z,21.25
2022-10-14T16:16:48.994Z,21.67
2022-10-14T16:19:24.347Z,21.98
2022-10-14T16:22:00.616Z,22.08
2022-10-14T16:24:38.404Z,23.88
2022-10-14T16:27:25.935Z,21.13
2022-10-14T16:30:08.139Z,22.20
2022-10-14T16:32:52.306Z,23.83
2022-10-14T16:35:32.728Z,23.50
2022-10-14T16:38:13.684Z,24.60
2022-10-14T16:43:36.418Z,24.52
2022-10-14T16:46:19.358Z,23.88
2022-10-14T16:49:00.328Z,23.70
2022-10-14T16:51:50.419Z,22.17
2022-10-14T16:54:34.474Z,21.35
2022-10-14T16:57:21.763Z,23.77
2022-10-14T17:00:07.474Z,22.80
2022-10-14T17:02:46.804Z,21.38
2022-10-14T17:05:33.067Z,20.42
2022-10-14T17:08:20.190Z,24.33
2022-10-14T17:11:06.179Z,22.92
2022-10-14T17:13:57.112Z,23.17
2022-10-14T17:16:46.174Z,26.50
2022-10-14T17:19:24.691Z,24.98
2022-10-14T17:22:03.896Z,29.70
2022-10-14T17:24:41.377Z,32.53
2022-10-14T17:27:29.685Z,37.40
2022-10-14T17:30:15.139Z,37.45
2022-10-14T17:32:57.369Z,29.13
2022-10-14T17:35:38.435Z,30.13
2022-10-14T17:38:29.412Z,30.92
2022-10-14T17:41:18.297Z,30.67
2022-10-14T17:44:05.839Z,31.88
2022-10-14T17:46:43.157Z,25.50
2022-10-14T17:49:25.074Z,28.67
2022-10-14T17:52:09.461Z,41.47
2022-10-14T17:54:58.968Z,27.08
2022-10-14T17:57:49.685Z,28.27
2022-10-14T18:00:35.437Z,30.42
2022-10-14T18:03:12.722Z,27.58
2022-10-14T18:06:07.437Z,32.30
2022-10-14T18:09:04.803Z,30.25
2022-10-14T18:14:50.049Z,32.97
2022-10-14T18:17:37.358Z,35.08
2022-10-14T18:20:20.986Z,34.05
2022-10-14T18:23:03.822Z,34.28
2022-10-14T18:25:43.983Z,36.90
2022-10-14T18:28:35.442Z,31.25
2022-10-14T18:31:31.189Z,33.80
2022-10-14T18:34:02.081Z,34.60
2022-10-14T18:36:33.134Z,36.25
2022-10-14T18:39:07.096Z,31.42
2022-10-14T18:41:38.990Z,36.17
2022-10-14T18:44:07.006Z,41.72
2022-10-14T18:46:38.997Z,49.33
2022-10-14T18:49:11.192Z,50.50
2022-10-14T18:51:42.038Z,43.70
2022-10-14T18:54:23.616Z,46.67
2022-10-14T18:56:56.199Z,42.22
2022-10-14T18:59:24.679Z,48.97
2022-10-14T19:01:53.978Z,42.10
2022-10-14T19:04:26.894Z,47.45
2022-10-14T19:06:57.990Z,41.33
2022-10-14T19:09:29.600Z,44.90
2022-10-14T19:12:21.666Z,41.63
2022-10-14T19:15:11.478Z,44.35
2022-10-14T19:17:50.906Z,42.03
2022-10-14T19:20:21.465Z,46.63
2022-10-14T19:22:56.874Z,45.60
2022-10-14T19:25:27.417Z,42.10
2022-10-14T19:27:55.397Z,45.00
2022-10-14T19:30:26.259Z,41.63
2022-10-14T19:32:54.541Z,40.00
2022-10-14T19:35:22.827Z,44.15
2022-10-14T19:37:56.961Z,42.97
2022-10-14T19:40:24.666Z,45.30
2022-10-14T19:42:53.726Z,40.58
2022-10-14T19:45:24.259Z,51.28
2022-10-14T19:47:54.176Z,43.80
2022-10-14T19:50:23.315Z,42.60
2022-10-14T19:52:52.706Z,44.90
2022-10-14T19:55:21.782Z,45.83
2022-10-14T19:57:56.210Z,42.10
2022-10-14T20:00:26.033Z,48.17
2022-10-14T20:02:56.893Z,52.50
2022-10-14T20:05:25.180Z,46.38
2022-10-14T20:07:54.574Z,45.55
2022-10-14T20:10:25.162Z,48.42
2022-10-14T20:12:53.087Z,44.03
2022-10-14T20:15:24.887Z,47.63
2022-10-14T20:18:06.996Z,44.25
2022-10-14T20:20:42.007Z,43.88
2022-10-14T20:23:20.440Z,51.08
2022-10-14T20:26:12.435Z,46.90
2022-10-14T20:28:50.088Z,47.67
2022-10-14T20:31:33.654Z,50.55
2022-10-14T20:34:12.216Z,49.80
2022-10-14T20:36:58.071Z,49.42
2022-10-14T20:39:35.380Z,45.50
2022-10-14T20:42:21.047Z,41.75
2022-10-14T20:45:09.278Z,37.33
2022-10-14T20:47:56.661Z,47.00
2022-10-14T20:50:38.317Z,44.08
2022-10-14T20:53:28.544Z,39.95
2022-10-14T20:56:04.425Z,43.22
2022-10-14T20:58:32.459Z,42.90
2022-10-14T21:01:16.758Z,41.35
2022-10-14T21:03:46.654Z,38.08
2022-10-14T21:06:19.499Z,40.60
2022-10-14T21:08:52.005Z,38.95
2022-10-14T21:11:23.697Z,37.40
2022-10-14T21:13:58.822Z,38.35
2022-10-14T21:16:36.873Z,35.60
2022-10-14T21:19:09.249Z,40.28
2022-10-14T21:21:42.315Z,35.90
2022-10-14T21:24:17.852Z,34.80
2022-10-14T21:26:50.125Z,35.70
2022-10-14T21:29:20.464Z,37.78
2022-10-14T21:31:49.596Z,37.08
2022-10-14T21:34:17.155Z,41.08
2022-10-14T21:36:44.901Z,36.55
2022-10-14T21:39:16.812Z,37.78
2022-10-14T21:41:46.194Z,35.75
2022-10-14T21:44:22.593Z,33.97
2022-10-14T21:46:51.039Z,39.03
2022-10-14T21:49:18.686Z,35.22
2022-10-14T21:51:46.152Z,35.42
2022-10-14T21:54:18.753Z,36.92
2022-10-14T21:56:46.248Z,39.17
2022-10-14T21:59:14.193Z,37.72
2022-10-14T22:01:42.056Z,33.85
2022-10-14T22:04:10.733Z,37.90
2022-10-14T22:06:38.554Z,39.83
2022-10-14T22:09:07.342Z,35.45
2022-10-14T22:11:41.587Z,39.63
2022-10-14T22:14:20.277Z,35.88
2022-10-14T22:16:51.991Z,43.97
2022-10-14T22:19:19.981Z,38.28
2022-10-14T22:21:50.292Z,35.42
2022-10-14T22:24:17.991Z,39.00
2022-10-14T22:26:45.742Z,36.10
2022-10-14T22:29:17.566Z,33.05
2022-10-14T22:31:46.736Z,38.72
2022-10-14T22:34:17.473Z,36.13
2022-10-14T22:36:45.661Z,40.35
2022-10-14T22:39:16.575Z,41.95
2022-10-14T22:41:44.874Z,37.47
2022-10-14T22:44:12.804Z,36.88
2022-10-14T22:46:42.247Z,39.20
2022-10-14T22:49:11.571Z,39.63
2022-10-14T22:51:58.778Z,37.72
2022-10-14T22:54:38.118Z,35.65
2022-10-14T22:57:25.345Z,38.30
2022-10-14T23:00:05.379Z,36.03
2022-10-14T23:02:52.557Z,38.45
2022-10-14T23:05:28.201Z,36.95
2022-10-14T23:08:15.494Z,35.05
2022-10-14T23:10:59.669Z,37.95
2022-10-14T23:13:50.300Z,36.05
2022-10-14T23:16:34.590Z,37.03
2022-10-14T23:19:21.754Z,39.22
2022-10-14T23:21:59.601Z,41.60
2022-10-14T23:24:46.778Z,39.03
2022-10-14T23:27:36.266Z,37.25
2022-10-14T23:30:12.585Z,38.38
2022-10-14T23:32:57.940Z,41.30
2022-10-14T23:35:35.775Z,36.47
2022-10-14T23:41:07.915Z,39.67
2022-10-14T23:43:48.338Z,36.25
2022-10-14T23:46:32.444Z,38.03
2022-10-14T23:49:26.578Z,38.13
2022-10-14T23:52:03.018Z,39.60
2022-10-14T23:54:48.734Z,41.05
2022-10-14T23:57:35.897Z,37.60
